sensor_id;sensor_type;location;lat;lon;timestamp;P1;durP1;ratioP1;P2;durP2;ratioP2
2313;SDS011;42279;51.388;7.000;2023-05-16T00:00:28;17.30;;;14.80;;
2313;SDS011;42279;51.388;7.000;2023-05-16T00:02:58;13.03;;;11.67;;
2313;SDS011;42279;51.388;7.000;2023-05-16T00:05:25;13.53;;;12.13;;
2313;SDS011;42279;51.388;7.000;2023-05-16T00:07:51;19.43;;;17.83;;
2313;SDS011;42279;51.388;7.000;2023-05-16T00:10:17;10.87;;;9.87;;
2313;SDS011;42279;51.388;7.000;2023-05-16T00:12:43;22.03;;;19.83;;
2313;SDS011;42279;51.388;7.000;2023-05-16T00:15:10;7.70;;;7.07;;
2313;SDS011;42279;51.388;7.000;2023-05-16T00:17:39;8.80;;;8.07;;
2313;SDS011;42279;51.388;7.000;2023-05-16T00:20:06;8.53;;;7.73;;
2313;SDS011;42279;51.388;7.000;2023-05-16T00:22:36;9.80;;;8.80;;
2313;SDS011;42279;51.388;7.000;2023-05-16T00:25:02;7.70;;;7.10;;
2313;SDS011;42279;51.388;7.000;2023-05-16T00:27:28;8.87;;;8.07;;
2313;SDS011;42279;51.388;7.000;2023-05-16T00:29:54;6.43;;;5.93;;
2313;SDS011;42279;51.388;7.000;2023-05-16T00:32:20;5.90;;;5.60;;
2313;SDS011;42279;51.388;7.000;2023-05-16T00:34:46;6.47;;;6.13;;
2313;SDS011;42279;51.388;7.000;2023-05-16T00:37:12;6.10;;;5.80;;
2313;SDS011;42279;51.388;7.000;2023-05-16T00:39:38;6.60;;;6.20;;
2313;SDS011;42279;51.388;7.000;2023-05-16T00:42:05;4.87;;;4.73;;
2313;SDS011;42279;51.388;7.000;2023-05-16T00:44:31;8.03;;;7.53;;
2313;SDS011;42279;51.388;7.000;2023-05-16T00:46:57;6.63;;;6.33;;
2313;SDS011;42279;51.388;7.000;2023-05-16T00:49:24;6.70;;;6.30;;
2313;SDS011;42279;51.388;7.000;2023-05-16T00:51:50;6.60;;;6.23;;
2313;SDS011;42279;51.388;7.000;2023-05-16T00:54:16;5.83;;;5.33;;
2313;SDS011;42279;51.388;7.000;2023-05-16T00:56:43;6.13;;;5.93;;
2313;SDS011;42279;51.388;7.000;2023-05-16T00:59:09;6.17;;;5.80;;
2313;SDS011;42279;51.388;7.000;2023-05-16T01:01:35;7.43;;;7.03;;
2313;SDS011;42279;51.388;7.000;2023-05-16T01:04:02;4.73;;;4.63;;
2313;SDS011;42279;51.388;7.000;2023-05-16T01:06:28;7.93;;;7.33;;
2313;SDS011;42279;51.388;7.000;2023-05-16T01:08:55;7.40;;;7.00;;
2313;SDS011;42279;51.388;7.000;2023-05-16T01:11:28;8.27;;;7.60;;
2313;SDS011;42279;51.388;7.000;2023-05-16T01:16:42;7.10;;;6.63;;
2313;SDS011;42279;51.388;7.000;2023-05-16T01:21:58;7.73;;;7.23;;
2313;SDS011;42279;51.388;7.000;2023-05-16T01:24:32;8.87;;;8.20;;
2313;SDS011;42279;51.388;7.000;2023-05-16T01:26:58;7.20;;;6.73;;
2313;SDS011;42279;51.388;7.000;2023-05-16T01:29:25;7.47;;;7.17;;
2313;SDS011;42279;51.388;7.000;2023-05-16T01:31:51;9.00;;;8.23;;
2313;SDS011;42279;51.388;7.000;2023-05-16T01:34:17;7.47;;;6.77;;
2313;SDS011;42279;51.388;7.000;2023-05-16T01:44:29;7.53;;;5.60;;
2313;SDS011;42279;51.388;7.000;2023-05-16T01:46:57;10.40;;;9.53;;
2313;SDS011;42279;51.388;7.000;2023-05-16T01:49:25;8.63;;;7.63;;
2313;SDS011;42279;51.388;7.000;2023-05-16T01:51:57;6.83;;;6.27;;
2313;SDS011;42279;51.388;7.000;2023-05-16T01:54:25;9.23;;;8.27;;
2313;SDS011;42279;51.388;7.000;2023-05-16T01:56:54;9.33;;;8.63;;
2313;SDS011;42279;51.388;7.000;2023-05-16T01:59:21;13.00;;;9.07;;
2313;SDS011;42279;51.388;7.000;2023-05-16T02:01:48;9.83;;;8.93;;
2313;SDS011;42279;51.388;7.000;2023-05-16T02:04:14;9.63;;;8.97;;
2313;SDS011;42279;51.388;7.000;2023-05-16T02:06:40;13.37;;;9.23;;
2313;SDS011;42279;51.388;7.000;2023-05-16T02:09:06;16.10;;;8.60;;
2313;SDS011;42279;51.388;7.000;2023-05-16T02:11:33;11.47;;;10.40;;
2313;SDS011;42279;51.388;7.000;2023-05-16T02:13:59;13.07;;;10.77;;
2313;SDS011;42279;51.388;7.000;2023-05-16T02:16:25;14.93;;;11.10;;
2313;SDS011;42279;51.388;7.000;2023-05-16T02:18:51;10.23;;;9.43;;
2313;SDS011;42279;51.388;7.000;2023-05-16T02:21:17;10.53;;;9.50;;
2313;SDS011;42279;51.388;7.000;2023-05-16T02:23:43;9.03;;;8.13;;
2313;SDS011;42279;51.388;7.000;2023-05-16T02:26:09;10.33;;;9.40;;
2313;SDS011;42279;51.388;7.000;2023-05-16T02:28:35;11.77;;;9.90;;
2313;SDS011;42279;51.388;7.000;2023-05-16T02:31:01;10.60;;;7.13;;
2313;SDS011;42279;51.388;7.000;2023-05-16T02:33:27;12.93;;;7.10;;
2313;SDS011;42279;51.388;7.000;2023-05-16T02:35:53;11.50;;;7.83;;
2313;SDS011;42279;51.388;7.000;2023-05-16T02:38:20;10.20;;;8.60;;
2313;SDS011;42279;51.388;7.000;2023-05-16T02:40:46;10.30;;;7.00;;
2313;SDS011;42279;51.388;7.000;2023-05-16T02:43:12;12.00;;;8.53;;
2313;SDS011;42279;51.388;7.000;2023-05-16T02:45:38;10.43;;;9.43;;
2313;SDS011;42279;51.388;7.000;2023-05-16T02:48:04;13.47;;;7.90;;
2313;SDS011;42279;51.388;7.000;2023-05-16T02:50:31;14.27;;;9.73;;
2313;SDS011;42279;51.388;7.000;2023-05-16T02:52:57;12.60;;;9.43;;
2313;SDS011;42279;51.388;7.000;2023-05-16T02:55:24;14.50;;;9.83;;
2313;SDS011;42279;51.388;7.000;2023-05-16T02:57:50;42.50;;;36.43;;
2313;SDS011;42279;51.388;7.000;2023-05-16T03:00:16;10.27;;;9.30;;
2313;SDS011;42279;51.388;7.000;2023-05-16T03:02:42;12.37;;;9.93;;
2313;SDS011;42279;51.388;7.000;2023-05-16T03:05:09;19.03;;;11.10;;
2313;SDS011;42279;51.388;7.000;2023-05-16T03:07:35;16.27;;;14.87;;
2313;SDS011;42279;51.388;7.000;2023-05-16T03:10:02;21.07;;;16.87;;
2313;SDS011;42279;51.388;7.000;2023-05-16T03:12:28;31.00;;;28.27;;
2313;SDS011;42279;51.388;7.000;2023-05-16T03:14:54;19.13;;;17.33;;
2313;SDS011;42279;51.388;7.000;2023-05-16T03:17:20;14.57;;;11.60;;
2313;SDS011;42279;51.388;7.000;2023-05-16T03:19:46;17.07;;;9.10;;
2313;SDS011;42279;51.388;7.000;2023-05-16T03:22:12;15.60;;;8.50;;
2313;SDS011;42279;51.388;7.000;2023-05-16T03:24:38;13.73;;;8.90;;
2313;SDS011;42279;51.388;7.000;2023-05-16T03:27:04;8.40;;;7.73;;
2313;SDS011;42279;51.388;7.000;2023-05-16T03:29:30;20.43;;;11.03;;
2313;SDS011;42279;51.388;7.000;2023-05-16T03:31:56;9.27;;;8.30;;
2313;SDS011;42279;51.388;7.000;2023-05-16T03:34:22;15.30;;;10.00;;
2313;SDS011;42279;51.388;7.000;2023-05-16T03:36:48;11.97;;;9.00;;
2313;SDS011;42279;51.388;7.000;2023-05-16T03:39:15;18.00;;;8.20;;
2313;SDS011;42279;51.388;7.000;2023-05-16T03:41:41;14.83;;;9.37;;
2313;SDS011;42279;51.388;7.000;2023-05-16T03:44:07;9.83;;;8.83;;
2313;SDS011;42279;51.388;7.000;2023-05-16T03:46:33;11.73;;;10.73;;
2313;SDS011;42279;51.388;7.000;2023-05-16T03:48:59;17.27;;;13.17;;
2313;SDS011;42279;51.388;7.000;2023-05-16T03:51:26;29.47;;;26.90;;
2313;SDS011;42279;51.388;7.000;2023-05-16T03:53:52;114.33;;;102.40;;
2313;SDS011;42279;51.388;7.000;2023-05-16T03:56:18;111.60;;;102.80;;
2313;SDS011;42279;51.388;7.000;2023-05-16T03:58:45;115.57;;;106.37;;
2313;SDS011;42279;51.388;7.000;2023-05-16T04:01:12;92.13;;;85.13;;
2313;SDS011;42279;51.388;7.000;2023-05-16T04:03:38;56.53;;;52.20;;
2313;SDS011;42279;51.388;7.000;2023-05-16T04:06:04;79.17;;;73.40;;
2313;SDS011;42279;51.388;7.000;2023-05-16T04:08:30;116.30;;;107.10;;
2313;SDS011;42279;51.388;7.000;2023-05-16T04:10:56;17.23;;;13.33;;
2313;SDS011;42279;51.388;7.000;2023-05-16T04:13:22;29.10;;;26.40;;
2313;SDS011;42279;51.388;7.000;2023-05-16T04:15:48;30.10;;;27.40;;
2313;SDS011;42279;51.388;7.000;2023-05-16T04:18:14;73.73;;;68.33;;
2313;SDS011;42279;51.388;7.000;2023-05-16T04:20:43;14.03;;;12.10;;
2313;SDS011;42279;51.388;7.000;2023-05-16T04:23:11;19.30;;;16.50;;
2313;SDS011;42279;51.388;7.000;2023-05-16T04:25:37;17.33;;;16.03;;
2313;SDS011;42279;51.388;7.000;2023-05-16T04:28:03;28.73;;;26.43;;
2313;SDS011;42279;51.388;7.000;2023-05-16T04:30:30;18.50;;;16.63;;
2313;SDS011;42279;51.388;7.000;2023-05-16T04:32:56;21.10;;;19.33;;
2313;SDS011;42279;51.388;7.000;2023-05-16T04:35:23;22.93;;;21.07;;
2313;SDS011;42279;51.388;7.000;2023-05-16T04:37:49;35.87;;;31.20;;
2313;SDS011;42279;51.388;7.000;2023-05-16T04:40:15;15.13;;;13.23;;
2313;SDS011;42279;51.388;7.000;2023-05-16T04:42:41;21.67;;;19.87;;
2313;SDS011;42279;51.388;7.000;2023-05-16T04:45:07;33.90;;;31.27;;
2313;SDS011;42279;51.388;7.000;2023-05-16T04:47:35;31.57;;;28.80;;
2313;SDS011;42279;51.388;7.000;2023-05-16T04:50:02;34.93;;;32.47;;
2313;SDS011;42279;51.388;7.000;2023-05-16T04:52:28;19.70;;;18.10;;
2313;SDS011;42279;51.388;7.000;2023-05-16T04:54:54;23.73;;;21.67;;
2313;SDS011;42279;51.388;7.000;2023-05-16T04:57:20;30.60;;;27.50;;
2313;SDS011;42279;51.388;7.000;2023-05-16T04:59:46;14.70;;;12.17;;
2313;SDS011;42279;51.388;7.000;2023-05-16T05:02:12;25.67;;;23.33;;
2313;SDS011;42279;51.388;7.000;2023-05-16T05:04:38;29.23;;;26.63;;
2313;SDS011;42279;51.388;7.000;2023-05-16T05:07:04;68.13;;;62.63;;
2313;SDS011;42279;51.388;7.000;2023-05-16T05:09:30;40.20;;;36.50;;
2313;SDS011;42279;51.388;7.000;2023-05-16T05:11:56;33.00;;;29.80;;
2313;SDS011;42279;51.388;7.000;2023-05-16T05:14:22;56.53;;;52.77;;
2313;SDS011;42279;51.388;7.000;2023-05-16T05:16:48;71.10;;;64.80;;
2313;SDS011;42279;51.388;7.000;2023-05-16T05:19:14;78.63;;;74.00;;
2313;SDS011;42279;51.388;7.000;2023-05-16T05:21:40;56.30;;;53.00;;
2313;SDS011;42279;51.388;7.000;2023-05-16T05:24:06;187.87;;;175.77;;
2313;SDS011;42279;51.388;7.000;2023-05-16T05:26:32;276.97;;;257.63;;
2313;SDS011;42279;51.388;7.000;2023-05-16T05:28:58;166.17;;;155.37;;
2313;SDS011;42279;51.388;7.000;2023-05-16T05:31:24;115.60;;;109.23;;
2313;SDS011;42279;51.388;7.000;2023-05-16T05:33:50;37.90;;;35.33;;
2313;SDS011;42279;51.388;7.000;2023-05-16T05:36:16;18.17;;;11.63;;
2313;SDS011;42279;51.388;7.000;2023-05-16T05:38:42;11.00;;;10.30;;
2313;SDS011;42279;51.388;7.000;2023-05-16T05:41:08;24.47;;;22.77;;
2313;SDS011;42279;51.388;7.000;2023-05-16T05:43:35;14.63;;;13.23;;
2313;SDS011;42279;51.388;7.000;2023-05-16T05:46:02;10.83;;;9.20;;
2313;SDS011;42279;51.388;7.000;2023-05-16T05:48:28;13.13;;;11.80;;
2313;SDS011;42279;51.388;7.000;2023-05-16T05:50:54;69.53;;;65.17;;
2313;SDS011;42279;51.388;7.000;2023-05-16T05:53:20;52.67;;;48.03;;
2313;SDS011;42279;51.388;7.000;2023-05-16T05:55:46;9.03;;;8.13;;
2313;SDS011;42279;51.388;7.000;2023-05-16T05:58:12;36.00;;;32.00;;
2313;SDS011;42279;51.388;7.000;2023-05-16T06:00:38;15.37;;;14.17;;
2313;SDS011;42279;51.388;7.000;2023-05-16T06:03:04;12.93;;;8.67;;
2313;SDS011;42279;51.388;7.000;2023-05-16T06:05:31;18.23;;;14.70;;
2313;SDS011;42279;51.388;7.000;2023-05-16T06:07:57;17.93;;;16.30;;
2313;SDS011;42279;51.388;7.000;2023-05-16T06:10:23;19.90;;;18.10;;
2313;SDS011;42279;51.388;7.000;2023-05-16T06:12:49;18.73;;;16.93;;
2313;SDS011;42279;51.388;7.000;2023-05-16T06:15:15;14.23;;;7.93;;
2313;SDS011;42279;51.388;7.000;2023-05-16T06:17:41;9.03;;;7.67;;
2313;SDS011;42279;51.388;7.000;2023-05-16T06:20:07;7.77;;;6.80;;
2313;SDS011;42279;51.388;7.000;2023-05-16T06:22:33;9.90;;;8.03;;
2313;SDS011;42279;51.388;7.000;2023-05-16T06:24:59;8.27;;;7.13;;
2313;SDS011;42279;51.388;7.000;2023-05-16T06:27:25;14.97;;;13.50;;
2313;SDS011;42279;51.388;7.000;2023-05-16T06:29:51;7.83;;;7.20;;
2313;SDS011;42279;51.388;7.000;2023-05-16T06:32:17;9.73;;;7.17;;
2313;SDS011;42279;51.388;7.000;2023-05-16T06:34:43;7.00;;;6.30;;
2313;SDS011;42279;51.388;7.000;2023-05-16T06:37:09;28.33;;;25.33;;
2313;SDS011;42279;51.388;7.000;2023-05-16T06:39:35;9.87;;;9.03;;
2313;SDS011;42279;51.388;7.000;2023-05-16T06:42:01;10.33;;;9.67;;
2313;SDS011;42279;51.388;7.000;2023-05-16T06:44:27;48.27;;;45.33;;
2313;SDS011;42279;51.388;7.000;2023-05-16T06:46:53;51.77;;;48.27;;
2313;SDS011;42279;51.388;7.000;2023-05-16T06:49:19;30.63;;;28.33;;
2313;SDS011;42279;51.388;7.000;2023-05-16T06:51:45;10.93;;;9.93;;
2313;SDS011;42279;51.388;7.000;2023-05-16T06:54:11;24.70;;;22.30;;
2313;SDS011;42279;51.388;7.000;2023-05-16T06:56:37;9.57;;;8.67;;
2313;SDS011;42279;51.388;7.000;2023-05-16T06:59:03;13.73;;;12.43;;
2313;SDS011;42279;51.388;7.000;2023-05-16T07:01:29;10.93;;;9.93;;
2313;SDS011;42279;51.388;7.000;2023-05-16T07:03:54;9.37;;;8.60;;
2313;SDS011;42279;51.388;7.000;2023-05-16T07:06:20;8.23;;;7.67;;
2313;SDS011;42279;51.388;7.000;2023-05-16T07:08:46;6.57;;;6.17;;
2313;SDS011;42279;51.388;7.000;2023-05-16T07:11:12;8.53;;;7.37;;
2313;SDS011;42279;51.388;7.000;2023-05-16T07:13:38;14.63;;;8.03;;
2313;SDS011;42279;51.388;7.000;2023-05-16T07:16:05;11.90;;;6.80;;
2313;SDS011;42279;51.388;7.000;2023-05-16T07:18:32;7.80;;;7.10;;
2313;SDS011;42279;51.388;7.000;2023-05-16T07:20:58;13.93;;;10.07;;
2313;SDS011;42279;51.388;7.000;2023-05-16T07:23:24;7.80;;;7.03;;
2313;SDS011;42279;51.388;7.000;2023-05-16T07:25:50;12.17;;;7.33;;
2313;SDS011;42279;51.388;7.000;2023-05-16T07:28:17;13.10;;;9.13;;
2313;SDS011;42279;51.388;7.000;2023-05-16T07:30:43;9.77;;;7.00;;
2313;SDS011;42279;51.388;7.000;2023-05-16T07:33:10;7.40;;;6.60;;
2313;SDS011;42279;51.388;7.000;2023-05-16T07:35:36;8.20;;;7.37;;
2313;SDS011;42279;51.388;7.000;2023-05-16T07:38:03;5.13;;;4.67;;
2313;SDS011;42279;51.388;7.000;2023-05-16T07:40:29;8.30;;;7.67;;
2313;SDS011;42279;51.388;7.000;2023-05-16T07:42:55;10.47;;;6.93;;
2313;SDS011;42279;51.388;7.000;2023-05-16T07:45:21;6.80;;;6.17;;
2313;SDS011;42279;51.388;7.000;2023-05-16T07:47:47;9.00;;;5.97;;
2313;SDS011;42279;51.388;7.000;2023-05-16T07:50:13;6.33;;;5.73;;
2313;SDS011;42279;51.388;7.000;2023-05-16T07:52:39;9.60;;;3.90;;
2313;SDS011;42279;51.388;7.000;2023-05-16T07:55:08;2.50;;;2.40;;
2313;SDS011;42279;51.388;7.000;2023-05-16T07:57:34;11.40;;;10.63;;
2313;SDS011;42279;51.388;7.000;2023-05-16T08:00:00;3.90;;;3.60;;
2313;SDS011;42279;51.388;7.000;2023-05-16T08:02:28;6.27;;;5.77;;
2313;SDS011;42279;51.388;7.000;2023-05-16T08:04:55;5.53;;;4.97;;
2313;SDS011;42279;51.388;7.000;2023-05-16T08:07:23;6.07;;;5.73;;
2313;SDS011;42279;51.388;7.000;2023-05-16T08:09:50;4.03;;;3.93;;
2313;SDS011;42279;51.388;7.000;2023-05-16T08:12:16;4.90;;;4.70;;
2313;SDS011;42279;51.388;7.000;2023-05-16T08:14:42;5.67;;;5.10;;
2313;SDS011;42279;51.388;7.000;2023-05-16T08:17:07;5.53;;;5.13;;
2313;SDS011;42279;51.388;7.000;2023-05-16T08:19:34;4.55;;;3.80;;
2313;SDS011;42279;51.388;7.000;2023-05-16T08:22:00;6.90;;;5.13;;
2313;SDS011;42279;51.388;7.000;2023-05-16T08:24:26;4.63;;;4.37;;
2313;SDS011;42279;51.388;7.000;2023-05-16T08:26:52;5.00;;;4.63;;
2313;SDS011;42279;51.388;7.000;2023-05-16T08:29:19;4.80;;;4.33;;
2313;SDS011;42279;51.388;7.000;2023-05-16T08:31:45;4.80;;;4.50;;
2313;SDS011;42279;51.388;7.000;2023-05-16T08:34:11;3.63;;;3.33;;
2313;SDS011;42279;51.388;7.000;2023-05-16T08:36:37;4.73;;;4.33;;
2313;SDS011;42279;51.388;7.000;2023-05-16T08:39:03;4.10;;;3.87;;
2313;SDS011;42279;51.388;7.000;2023-05-16T08:41:30;4.93;;;4.70;;
2313;SDS011;42279;51.388;7.000;2023-05-16T08:43:56;6.53;;;5.37;;
2313;SDS011;42279;51.388;7.000;2023-05-16T08:46:22;3.45;;;3.13;;
2313;SDS011;42279;51.388;7.000;2023-05-16T08:48:52;4.93;;;3.90;;
2313;SDS011;42279;51.388;7.000;2023-05-16T08:51:20;5.63;;;3.60;;
2313;SDS011;42279;51.388;7.000;2023-05-16T08:53:51;4.63;;;4.33;;
2313;SDS011;42279;51.388;7.000;2023-05-16T08:56:19;14.48;;;4.88;;
2313;SDS011;42279;51.388;7.000;2023-05-16T08:58:46;10.10;;;3.63;;
2313;SDS011;42279;51.388;7.000;2023-05-16T09:01:12;5.23;;;3.50;;
2313;SDS011;42279;51.388;7.000;2023-05-16T09:03:38;3.43;;;3.23;;
2313;SDS011;42279;51.388;7.000;2023-05-16T09:06:07;2.67;;;2.50;;
2313;SDS011;42279;51.388;7.000;2023-05-16T09:08:33;3.57;;;3.37;;
2313;SDS011;42279;51.388;7.000;2023-05-16T09:11:00;4.30;;;4.00;;
2313;SDS011;42279;51.388;7.000;2023-05-16T09:13:26;3.23;;;2.80;;
2313;SDS011;42279;51.388;7.000;2023-05-16T09:16:08;4.13;;;3.83;;
2313;SDS011;42279;51.388;7.000;2023-05-16T09:18:35;5.37;;;3.87;;
2313;SDS011;42279;51.388;7.000;2023-05-16T09:21:04;5.50;;;2.23;;
2313;SDS011;42279;51.388;7.000;2023-05-16T09:23:33;5.43;;;2.90;;
2313;SDS011;42279;51.388;7.000;2023-05-16T09:26:00;5.97;;;4.37;;
2313;SDS011;42279;51.388;7.000;2023-05-16T09:28:26;4.17;;;3.97;;
2313;SDS011;42279;51.388;7.000;2023-05-16T09:30:52;5.40;;;3.00;;
2313;SDS011;42279;51.388;7.000;2023-05-16T09:33:27;6.07;;;4.40;;
2313;SDS011;42279;51.388;7.000;2023-05-16T09:36:02;2.90;;;2.70;;
2313;SDS011;42279;51.388;7.000;2023-05-16T09:38:28;3.53;;;3.30;;
2313;SDS011;42279;51.388;7.000;2023-05-16T09:40:54;3.07;;;2.87;;
2313;SDS011;42279;51.388;7.000;2023-05-16T09:43:22;2.80;;;2.60;;
2313;SDS011;42279;51.388;7.000;2023-05-16T09:45:48;3.50;;;3.20;;
2313;SDS011;42279;51.388;7.000;2023-05-16T09:48:14;3.60;;;3.40;;
2313;SDS011;42279;51.388;7.000;2023-05-16T09:50:45;4.00;;;3.20;;
2313;SDS011;42279;51.388;7.000;2023-05-16T09:53:12;2.60;;;2.40;;
2313;SDS011;42279;51.388;7.000;2023-05-16T09:55:38;4.10;;;3.70;;
2313;SDS011;42279;51.388;7.000;2023-05-16T09:58:04;4.13;;;3.93;;
2313;SDS011;42279;51.388;7.000;2023-05-16T10:00:31;3.20;;;3.10;;
2313;SDS011;42279;51.388;7.000;2023-05-16T10:02:58;3.47;;;3.20;;
2313;SDS011;42279;51.388;7.000;2023-05-16T10:05:25;2.73;;;2.63;;
2313;SDS011;42279;51.388;7.000;2023-05-16T10:07:53;2.67;;;2.50;;
2313;SDS011;42279;51.388;7.000;2023-05-16T10:10:20;9.83;;;8.93;;
2313;SDS011;42279;51.388;7.000;2023-05-16T10:12:46;2.87;;;2.67;;
2313;SDS011;42279;51.388;7.000;2023-05-16T10:15:13;6.90;;;6.40;;
2313;SDS011;42279;51.388;7.000;2023-05-16T10:17:40;4.10;;;3.57;;
2313;SDS011;42279;51.388;7.000;2023-05-16T10:20:09;3.53;;;3.33;;
2313;SDS011;42279;51.388;7.000;2023-05-16T10:22:38;4.03;;;3.93;;
2313;SDS011;42279;51.388;7.000;2023-05-16T10:27:50;5.40;;;3.03;;
2313;SDS011;42279;51.388;7.000;2023-05-16T10:30:17;17.93;;;16.53;;
2313;SDS011;42279;51.388;7.000;2023-05-16T10:32:44;3.30;;;3.20;;
2313;SDS011;42279;51.388;7.000;2023-05-16T10:35:11;12.53;;;11.53;;
2313;SDS011;42279;51.388;7.000;2023-05-16T10:37:37;3.83;;;3.63;;
2313;SDS011;42279;51.388;7.000;2023-05-16T10:40:03;6.37;;;4.33;;
2313;SDS011;42279;51.388;7.000;2023-05-16T10:42:32;4.00;;;3.80;;
2313;SDS011;42279;51.388;7.000;2023-05-16T10:47:52;5.47;;;4.97;;
2313;SDS011;42279;51.388;7.000;2023-05-16T10:53:10;6.87;;;4.43;;
2313;SDS011;42279;51.388;7.000;2023-05-16T10:55:37;5.37;;;5.10;;
2313;SDS011;42279;51.388;7.000;2023-05-16T10:58:03;22.23;;;19.93;;
2313;SDS011;42279;51.388;7.000;2023-05-16T11:00:29;7.70;;;5.87;;
2313;SDS011;42279;51.388;7.000;2023-05-16T11:03:05;19.90;;;16.30;;
2313;SDS011;42279;51.388;7.000;2023-05-16T11:05:31;6.73;;;6.13;;
2313;SDS011;42279;51.388;7.000;2023-05-16T11:08:04;18.33;;;16.80;;
2313;SDS011;42279;51.388;7.000;2023-05-16T11:10:31;4.40;;;4.30;;
2313;SDS011;42279;51.388;7.000;2023-05-16T11:13:06;4.33;;;2.90;;
2313;SDS011;42279;51.388;7.000;2023-05-16T11:15:32;4.90;;;4.50;;
2313;SDS011;42279;51.388;7.000;2023-05-16T11:18:06;4.90;;;4.70;;
2313;SDS011;42279;51.388;7.000;2023-05-16T11:20:36;6.83;;;4.37;;
2313;SDS011;42279;51.388;7.000;2023-05-16T11:25:47;6.10;;;5.50;;
2313;SDS011;42279;51.388;7.000;2023-05-16T11:28:15;8.77;;;7.57;;
2313;SDS011;42279;51.388;7.000;2023-05-16T11:30:44;3.40;;;3.10;;
2313;SDS011;42279;51.388;7.000;2023-05-16T11:33:13;4.03;;;2.90;;
2313;SDS011;42279;51.388;7.000;2023-05-16T11:35:40;5.03;;;4.00;;
2313;SDS011;42279;51.388;7.000;2023-05-16T11:38:10;3.20;;;3.00;;
2313;SDS011;42279;51.388;7.000;2023-05-16T11:40:40;3.90;;;3.50;;
2313;SDS011;42279;51.388;7.000;2023-05-16T11:43:09;2.83;;;2.73;;
2313;SDS011;42279;51.388;7.000;2023-05-16T11:45:36;5.87;;;5.53;;
2313;SDS011;42279;51.388;7.000;2023-05-16T11:48:02;3.00;;;3.00;;
2313;SDS011;42279;51.388;7.000;2023-05-16T11:50:28;5.30;;;5.10;;
2313;SDS011;42279;51.388;7.000;2023-05-16T11:52:55;4.73;;;4.50;;
2313;SDS011;42279;51.388;7.000;2023-05-16T11:55:22;6.07;;;5.53;;
2313;SDS011;42279;51.388;7.000;2023-05-16T11:57:49;4.73;;;4.57;;
2313;SDS011;42279;51.388;7.000;2023-05-16T12:00:17;3.43;;;3.30;;
2313;SDS011;42279;51.388;7.000;2023-05-16T12:02:47;5.00;;;4.80;;
2313;SDS011;42279;51.388;7.000;2023-05-16T12:05:13;5.13;;;4.73;;
2313;SDS011;42279;51.388;7.000;2023-05-16T12:07:41;3.60;;;3.40;;
2313;SDS011;42279;51.388;7.000;2023-05-16T12:10:10;5.10;;;4.90;;
2313;SDS011;42279;51.388;7.000;2023-05-16T12:12:37;4.57;;;4.37;;
2313;SDS011;42279;51.388;7.000;2023-05-16T12:15:03;5.77;;;5.20;;
2313;SDS011;42279;51.388;7.000;2023-05-16T12:17:30;6.00;;;5.70;;
2313;SDS011;42279;51.388;7.000;2023-05-16T12:19:56;3.27;;;2.97;;
2313;SDS011;42279;51.388;7.000;2023-05-16T12:22:26;4.50;;;4.30;;
2313;SDS011;42279;51.388;7.000;2023-05-16T12:24:52;4.53;;;4.30;;
2313;SDS011;42279;51.388;7.000;2023-05-16T12:27:21;2.63;;;2.53;;
2313;SDS011;42279;51.388;7.000;2023-05-16T12:29:48;4.00;;;3.90;;
2313;SDS011;42279;51.388;7.000;2023-05-16T12:32:18;3.50;;;3.40;;
2313;SDS011;42279;51.388;7.000;2023-05-16T12:34:50;2.10;;;2.00;;
2313;SDS011;42279;51.388;7.000;2023-05-16T12:37:17;2.83;;;2.73;;
2313;SDS011;42279;51.388;7.000;2023-05-16T12:39:43;3.17;;;2.90;;
2313;SDS011;42279;51.388;7.000;2023-05-16T12:42:11;2.50;;;2.33;;
2313;SDS011;42279;51.388;7.000;2023-05-16T12:44:38;7.23;;;6.80;;
2313;SDS011;42279;51.388;7.000;2023-05-16T12:47:10;3.17;;;3.10;;
2313;SDS011;42279;51.388;7.000;2023-05-16T12:49:36;2.47;;;2.37;;
2313;SDS011;42279;51.388;7.000;2023-05-16T12:52:08;3.13;;;2.40;;
2313;SDS011;42279;51.388;7.000;2023-05-16T12:54:42;4.33;;;4.13;;
2313;SDS011;42279;51.388;7.000;2023-05-16T12:57:09;8.70;;;4.90;;
2313;SDS011;42279;51.388;7.000;2023-05-16T12:59:35;4.17;;;3.87;;
2313;SDS011;42279;51.388;7.000;2023-05-16T13:02:01;2.30;;;2.10;;
2313;SDS011;42279;51.388;7.000;2023-05-16T13:04:28;2.57;;;2.47;;
2313;SDS011;42279;51.388;7.000;2023-05-16T13:06:54;2.10;;;2.00;;
2313;SDS011;42279;51.388;7.000;2023-05-16T13:09:21;2.77;;;2.67;;
2313;SDS011;42279;51.388;7.000;2023-05-16T13:11:47;2.27;;;2.17;;
2313;SDS011;42279;51.388;7.000;2023-05-16T13:14:14;2.50;;;2.43;;
2313;SDS011;42279;51.388;7.000;2023-05-16T13:16:41;2.47;;;2.37;;
2313;SDS011;42279;51.388;7.000;2023-05-16T13:19:07;2.97;;;2.77;;
2313;SDS011;42279;51.388;7.000;2023-05-16T13:21:33;1.90;;;1.77;;
2313;SDS011;42279;51.388;7.000;2023-05-16T13:23:59;2.17;;;2.07;;
2313;SDS011;42279;51.388;7.000;2023-05-16T13:26:25;3.47;;;2.60;;
2313;SDS011;42279;51.388;7.000;2023-05-16T13:28:52;2.83;;;2.77;;
2313;SDS011;42279;51.388;7.000;2023-05-16T13:31:19;2.17;;;2.07;;
2313;SDS011;42279;51.388;7.000;2023-05-16T13:33:46;2.70;;;2.50;;
2313;SDS011;42279;51.388;7.000;2023-05-16T13:36:12;1.90;;;1.30;;
2313;SDS011;42279;51.388;7.000;2023-05-16T13:38:40;2.80;;;2.60;;
2313;SDS011;42279;51.388;7.000;2023-05-16T13:41:07;1.80;;;1.80;;
2313;SDS011;42279;51.388;7.000;2023-05-16T13:43:33;2.37;;;2.20;;
2313;SDS011;42279;51.388;7.000;2023-05-16T13:45:59;3.40;;;2.93;;
2313;SDS011;42279;51.388;7.000;2023-05-16T13:48:25;16.27;;;14.87;;
2313;SDS011;42279;51.388;7.000;2023-05-16T13:50:51;6.33;;;5.80;;
2313;SDS011;42279;51.388;7.000;2023-05-16T13:53:20;16.23;;;14.97;;
2313;SDS011;42279;51.388;7.000;2023-05-16T13:55:47;5.07;;;3.87;;
2313;SDS011;42279;51.388;7.000;2023-05-16T13:58:13;3.40;;;2.43;;
2313;SDS011;42279;51.388;7.000;2023-05-16T14:00:39;5.30;;;3.93;;
2313;SDS011;42279;51.388;7.000;2023-05-16T14:03:05;4.60;;;4.30;;
2313;SDS011;42279;51.388;7.000;2023-05-16T14:05:31;4.70;;;4.40;;
2313;SDS011;42279;51.388;7.000;2023-05-16T14:07:57;2.87;;;2.67;;
2313;SDS011;42279;51.388;7.000;2023-05-16T14:10:23;4.67;;;3.23;;
2313;SDS011;42279;51.388;7.000;2023-05-16T14:12:50;2.70;;;2.60;;
2313;SDS011;42279;51.388;7.000;2023-05-16T14:15:16;4.93;;;4.63;;
2313;SDS011;42279;51.388;7.000;2023-05-16T14:18:05;4.10;;;3.80;;
2313;SDS011;42279;51.388;7.000;2023-05-16T14:20:32;5.60;;;5.27;;
2313;SDS011;42279;51.388;7.000;2023-05-16T14:22:58;3.50;;;3.40;;
2313;SDS011;42279;51.388;7.000;2023-05-16T14:25:24;3.57;;;3.37;;
2313;SDS011;42279;51.388;7.000;2023-05-16T14:27:50;3.77;;;3.47;;
2313;SDS011;42279;51.388;7.000;2023-05-16T14:30:16;3.77;;;3.50;;
2313;SDS011;42279;51.388;7.000;2023-05-16T14:32:42;3.30;;;3.10;;
2313;SDS011;42279;51.388;7.000;2023-05-16T14:35:08;4.63;;;4.43;;
2313;SDS011;42279;51.388;7.000;2023-05-16T14:37:34;6.30;;;5.90;;
2313;SDS011;42279;51.388;7.000;2023-05-16T14:40:00;3.23;;;3.07;;
2313;SDS011;42279;51.388;7.000;2023-05-16T14:42:30;6.23;;;4.40;;
2313;SDS011;42279;51.388;7.000;2023-05-16T14:44:56;5.07;;;4.63;;
2313;SDS011;42279;51.388;7.000;2023-05-16T14:47:22;5.70;;;5.30;;
2313;SDS011;42279;51.388;7.000;2023-05-16T14:49:49;5.90;;;5.60;;
2313;SDS011;42279;51.388;7.000;2023-05-16T14:52:16;6.00;;;5.53;;
2313;SDS011;42279;51.388;7.000;2023-05-16T14:54:42;5.67;;;5.27;;
2313;SDS011;42279;51.388;7.000;2023-05-16T14:57:08;4.77;;;4.50;;
2313;SDS011;42279;51.388;7.000;2023-05-16T14:59:34;5.60;;;5.30;;
2313;SDS011;42279;51.388;7.000;2023-05-16T15:02:00;5.30;;;4.90;;
2313;SDS011;42279;51.388;7.000;2023-05-16T15:04:27;6.47;;;4.63;;
2313;SDS011;42279;51.388;7.000;2023-05-16T15:06:53;3.90;;;3.60;;
2313;SDS011;42279;51.388;7.000;2023-05-16T15:09:19;3.47;;;3.37;;
2313;SDS011;42279;51.388;7.000;2023-05-16T15:11:45;5.37;;;5.17;;
2313;SDS011;42279;51.388;7.000;2023-05-16T15:14:12;4.70;;;4.30;;